Time;durP1;ratioP1;P1;durP2;ratioP2;P2;SDS_P1;SDS_P2;PMS_P1;PMS_P2;Temp;Humidity;BMP_temperature;BMP_pressure;BME280_temperature;BME280_humidity;BME280_pressure;Samples;Min_cycle;Max_cycle;Signal;HPM_P1;HPM_P2
2023/12/01 00:00:33;;;;;;;37.80;22.35;;;;;;;2.12;82.49;100130.59;3608420;39;20058;-64
2023/12/01 00:02:58;;;;;;;39.22;22.25;;;;;;;2.13;81.86;100135.00;3605742;39;20051;-64
2023/12/01 00:05:24;;;;;;;37.38;21.55;;;;;;;2.14;81.49;100142.03;3609704;39;20311;-63
2023/12/01 00:07:49;;;;;;;40.17;21.65;;;;;;;2.14;82.32;100148.19;3610150;39;20075;-64
2023/12/01 00:10:15;;;;;;;38.17;21.75;;;;;;;2.14;82.58;100149.97;3605273;39;20396;-63
2023/12/01 00:12:41;;;;;;;37.50;21.40;;;;;;;2.16;82.75;100140.16;3604976;39;20068;-63
2023/12/01 00:15:07;;;;;;;40.08;24.05;;;;;;;2.17;82.30;100149.88;3607364;39;20126;-63
2023/12/01 00:17:33;;;;;;;38.00;22.50;;;;;;;2.17;82.00;100142.78;3605077;39;20434;-63
2023/12/01 00:19:59;;;;;;;37.47;20.70;;;;;;;2.18;82.31;100149.78;3609871;39;20067;-63
2023/12/01 00:22:25;;;;;;;37.00;21.80;;;;;;;2.18;82.13;100156.88;3607971;39;20316;-63
2023/12/01 00:24:50;;;;;;;36.42;22.05;;;;;;;2.12;81.95;100163.28;3605601;39;20050;-63
2023/12/01 00:27:16;;;;;;;40.90;22.85;;;;;;;2.08;81.70;100154.59;3607858;39;20051;-62
2023/12/01 00:29:42;;;;;;;40.17;22.30;;;;;;;2.04;81.31;100152.97;3607150;39;20058;-63
2023/12/01 00:32:08;;;;;;;39.13;21.60;;;;;;;1.97;81.81;100147.97;3610570;39;20055;-63
2023/12/01 00:34:33;;;;;;;39.00;22.45;;;;;;;2.07;81.70;100154.66;3608497;39;20046;-63
2023/12/01 00:36:59;;;;;;;37.25;21.75;;;;;;;2.07;81.84;100168.78;3614571;39;20164;-63
2023/12/01 00:39:25;;;;;;;37.85;22.27;;;;;;;2.11;82.30;100168.66;3614734;39;20272;-63
2023/12/01 00:41:51;;;;;;;40.22;22.50;;;;;;;2.12;82.29;100159.78;3609969;39;20063;-63
2023/12/01 00:44:16;;;;;;;41.20;21.70;;;;;;;2.16;81.75;100156.97;3610705;39;20160;-63
2023/12/01 00:46:42;;;;;;;38.60;21.98;;;;;;;2.16;82.06;100170.22;3612145;39;20051;-62
2023/12/01 00:49:08;;;;;;;38.55;21.05;;;;;;;2.15;81.55;100176.41;3612255;39;20048;-63
2023/12/01 00:51:33;;;;;;;41.90;23.38;;;;;;;2.17;82.30;100173.72;3607394;39;20059;-63
2023/12/01 00:53:59;;;;;;;40.00;22.52;;;;;;;2.16;81.88;100171.97;3609490;39;20058;-63
2023/12/01 00:56:25;;;;;;;42.85;22.10;;;;;;;2.17;82.45;100179.88;3609553;39;20056;-64
2023/12/01 00:58:50;;;;;;;40.13;21.63;;;;;;;2.11;81.28;100179.25;3609291;39;20055;-63
2023/12/01 01:01:17;;;;;;;38.85;21.00;;;;;;;2.09;81.87;100180.19;3607184;39;20058;-63
2023/12/01 01:03:43;;;;;;;40.90;21.80;;;;;;;2.08;81.62;100181.09;3611686;39;20042;-62
2023/12/01 01:06:10;;;;;;;38.47;21.45;;;;;;;2.07;81.52;100176.72;3611149;39;20043;-63
2023/12/01 01:08:35;;;;;;;39.17;21.92;;;;;;;2.07;81.82;100176.72;3612168;39;20046;-63
2023/12/01 01:11:02;;;;;;;40.08;21.48;;;;;;;2.08;82.17;100186.38;3611692;39;20064;-64
2023/12/01 01:13:28;;;;;;;42.25;21.23;;;;;;;2.03;80.59;100192.78;3611860;39;20124;-63
2023/12/01 01:15:54;;;;;;;41.55;21.67;;;;;;;1.97;82.33;100193.91;3613504;39;20063;-63
2023/12/01 01:18:20;;;;;;;39.05;21.55;;;;;;;1.94;81.77;100193.16;3610878;39;20043;-62
2023/12/01 01:20:47;;;;;;;43.03;22.00;;;;;;;1.96;83.06;100201.88;3610326;39;20077;-63
2023/12/01 01:23:13;;;;;;;40.78;20.58;;;;;;;1.97;82.59;100193.03;3609826;39;20670;-62
2023/12/01 01:25:38;;;;;;;39.97;21.15;;;;;;;1.98;81.99;100198.25;3609549;39;20061;-63
2023/12/01 01:28:04;;;;;;;41.78;22.00;;;;;;;2.00;82.54;100196.44;3606926;39;20075;-64
2023/12/01 01:30:30;;;;;;;43.17;21.77;;;;;;;2.02;82.42;100201.66;3605112;39;20136;-63
2023/12/01 01:32:56;;;;;;;41.10;21.48;;;;;;;2.01;82.26;100203.44;3608731;39;20056;-63
2023/12/01 01:35:21;;;;;;;41.65;21.67;;;;;;;1.99;81.51;100197.34;3605386;39;20059;-64
2023/12/01 01:37:47;;;;;;;44.08;22.92;;;;;;;1.96;82.96;100200.09;3606171;39;20047;-64
2023/12/01 01:40:14;;;;;;;45.10;23.15;;;;;;;1.94;83.02;100203.75;3604078;39;20106;-63
2023/12/01 01:42:39;;;;;;;42.28;21.88;;;;;;;1.91;82.74;100199.41;3598035;39;20063;-61
2023/12/01 01:45:06;;;;;;;44.65;21.75;;;;;;;1.93;83.78;100196.69;3603934;39;20063;-62
2023/12/01 01:47:35;;;;;;;43.33;22.48;;;;;;;1.92;82.93;100197.63;3609111;39;20047;-63
2023/12/01 01:50:03;;;;;;;43.25;22.33;;;;;;;1.85;82.95;100194.34;3607777;39;20128;-63
2023/12/01 01:52:30;;;;;;;46.90;22.88;;;;;;;1.92;82.63;100206.44;3607632;39;20408;-63
2023/12/01 01:54:56;;;;;;;46.22;23.83;;;;;;;1.94;83.67;100204.59;3604089;39;20296;-63
2023/12/01 01:57:22;;;;;;;48.40;23.33;;;;;;;1.94;82.93;100215.22;3609255;39;20049;-63
2023/12/01 01:59:49;;;;;;;47.90;23.08;;;;;;;1.96;83.48;100210.69;3607163;39;20058;-63
2023/12/01 02:02:14;;;;;;;50.45;23.90;;;;;;;1.97;83.09;100215.09;3606605;39;20052;-63
2023/12/01 02:04:40;;;;;;;48.10;23.17;;;;;;;1.98;82.37;100216.81;3611380;39;20054;-62
2023/12/01 02:07:08;;;;;;;48.97;22.75;;;;;;;2.00;82.12;100222.94;3605311;39;20063;-63
2023/12/01 02:09:34;;;;;;;49.72;22.77;;;;;;;2.03;82.78;100216.63;3605957;39;20047;-63
2023/12/01 02:12:00;;;;;;;48.85;23.90;;;;;;;2.03;83.21;100230.78;3610426;39;20063;-63
2023/12/01 02:14:26;;;;;;;49.72;22.92;;;;;;;2.02;82.89;100229.03;3607017;39;20062;-62
2023/12/01 02:16:52;;;;;;;51.85;23.58;;;;;;;1.78;82.95;100182.25;3606018;39;20055;-62
2023/12/01 02:19:18;;;;;;;47.80;22.90;;;;;;;2.02;82.33;100229.03;3606876;39;20055;-63
2023/12/01 02:21:47;;;;;;;48.92;23.63;;;;;;;1.96;82.27;100217.78;3607185;39;20047;-63
2023/12/01 02:24:13;;;;;;;48.17;23.38;;;;;;;1.95;81.47;100235.47;3605849;39;20051;-63
2023/12/01 02:26:40;;;;;;;44.85;23.23;;;;;;;1.91;81.91;100235.66;3608650;39;20054;-63
2023/12/01 02:29:06;;;;;;;44.45;21.73;;;;;;;1.88;81.67;100231.31;3610028;39;20059;-63
2023/12/01 02:31:33;;;;;;;46.33;21.90;;;;;;;1.62;82.01;100206.63;3608978;39;20370;-62
2023/12/01 02:33:59;;;;;;;45.63;22.92;;;;;;;1.74;81.83;100238.88;3607152;39;20053;-63
2023/12/01 02:36:25;;;;;;;45.05;21.30;;;;;;;1.72;81.84;100238.09;3607968;39;20383;-63
2023/12/01 02:38:51;;;;;;;48.35;21.17;;;;;;;1.64;82.14;100238.34;3609019;39;20050;-61
2023/12/01 02:41:20;;;;;;;50.13;23.23;;;;;;;1.54;81.70;100229.84;3607593;39;20104;-62
2023/12/01 02:43:46;;;;;;;50.25;22.95;;;;;;;1.49;82.01;100233.56;3608264;39;20047;-64
2023/12/01 02:46:12;;;;;;;48.20;22.08;;;;;;;1.48;82.80;100237.13;3605848;39;20067;-63
2023/12/01 02:48:41;;;;;;;48.55;22.88;;;;;;;1.44;82.07;100224.94;3606305;39;20054;-63
2023/12/01 02:51:08;;;;;;;50.25;22.30;;;;;;;1.27;82.94;100207.84;3608362;39;20098;-62
2023/12/01 02:53:34;;;;;;;47.22;22.25;;;;;;;1.41;83.31;100231.19;3606926;39;20127;-63
2023/12/01 02:56:01;;;;;;;50.25;23.92;;;;;;;1.40;82.13;100226.81;3607708;39;20143;-63
2023/12/01 02:58:26;;;;;;;50.92;23.55;;;;;;;1.21;82.41;100196.59;3608073;39;20079;-63
2023/12/01 03:00:52;;;;;;;48.35;22.25;;;;;;;1.41;83.19;100222.38;3607102;39;20069;-63
2023/12/01 03:03:17;;;;;;;49.17;23.25;;;;;;;1.45;83.28;100237.25;3607549;39;20063;-62
2023/12/01 03:05:43;;;;;;;52.17;23.52;;;;;;;1.48;83.83;100227.41;3606897;39;20347;-63
2023/12/01 03:08:08;;;;;;;53.95;24.75;;;;;;;1.53;83.89;100230.78;3606337;39;20058;-63
2023/12/01 03:10:35;;;;;;;51.42;22.70;;;;;;;1.22;83.84;100178.00;3608594;39;20054;-63
2023/12/01 03:13:01;;;;;;;54.08;24.00;;;;;;;1.56;84.33;100229.81;3606532;39;20487;-63
2023/12/01 03:15:29;;;;;;;45.65;22.15;;;;;;;1.58;83.33;100228.81;3605468;39;20059;-62
2023/12/01 03:17:55;;;;;;;48.55;23.40;;;;;;;1.56;83.14;100225.38;3608075;39;20382;-63
2023/12/01 03:20:21;;;;;;;49.53;23.08;;;;;;;1.69;83.65;100235.56;3609595;39;20043;-62
2023/12/01 03:22:50;;;;;;;49.30;23.73;;;;;;;1.66;83.29;100239.16;3606885;39;20120;-63
2023/12/01 03:25:17;;;;;;;48.72;23.02;;;;;;;1.57;82.56;100227.09;3608072;39;20435;-63
2023/12/01 03:27:45;;;;;;;51.00;24.00;;;;;;;1.59;82.58;100241.16;3608397;39;20044;-63
2023/12/01 03:30:20;;;;;;;54.05;24.55;;;;;;;1.57;83.88;100226.22;3606497;39;20051;-62
2023/12/01 03:32:53;;;;;;;51.28;23.95;;;;;;;1.67;83.57;100238.22;3607814;39;20077;-63
2023/12/01 03:35:21;;;;;;;60.42;25.63;;;;;;;1.46;83.83;100196.59;3599942;39;20059;-63
2023/12/01 03:37:49;;;;;;;56.83;24.73;;;;;;;1.69;83.32;100246.16;3608380;39;20128;-64
2023/12/01 03:40:16;;;;;;;56.95;25.83;;;;;;;1.70;83.56;100248.72;3609216;39;20382;-63
2023/12/01 03:42:49;;;;;;;59.17;25.55;;;;;;;1.70;82.78;100248.72;3606316;39;20055;-62
2023/12/01 03:45:16;;;;;;;58.47;25.50;;;;;;;1.44;83.26;100207.25;3607041;39;20051;-64
2023/12/01 03:47:45;;;;;;;58.40;25.52;;;;;;;1.67;82.66;100247.97;3606466;39;20051;-63
2023/12/01 03:50:11;;;;;;;55.75;24.70;;;;;;;1.69;83.38;100246.16;3605999;39;20067;-63
2023/12/01 03:52:46;;;;;;;56.95;23.63;;;;;;;1.67;82.75;100248.84;3607452;39;20351;-63
2023/12/01 03:55:14;;;;;;;60.28;26.40;;;;;;;1.59;83.11;100249.09;3604776;39;20067;-63
2023/12/01 03:57:42;;;;;;;65.18;25.65;;;;;;;1.53;82.84;100261.69;3607228;39;20129;-63
2023/12/01 04:00:13;;;;;;;64.38;27.77;;;;;;;1.46;83.12;100250.44;3604703;39;20054;-63
2023/12/01 04:02:45;;;;;;;64.53;24.15;;;;;;;1.42;84.05;100258.53;3607023;39;20055;-63
2023/12/01 04:05:17;;;;;;;60.88;26.27;;;;;;;1.47;84.04;100262.75;3609401;39;20107;-63
2023/12/01 04:07:50;;;;;;;69.37;26.27;;;;;;;1.18;83.70;100212.56;3606839;39;20052;-63
2023/12/01 04:10:16;;;;;;;67.70;26.98;;;;;;;1.41;83.83;100256.81;3604155;39;20661;-63
2023/12/01 04:12:46;;;;;;;65.18;25.25;;;;;;;1.39;84.57;100267.44;3600708;39;20110;-63
2023/12/01 04:15:18;;;;;;;66.25;26.15;;;;;;;1.41;84.86;100272.69;3604751;39;20051;-63
2023/12/01 04:17:47;;;;;;;68.05;25.75;;;;;;;1.37;84.67;100256.06;3604628;39;20358;-64
2023/12/01 04:20:22;;;;;;;69.20;25.15;;;;;;;1.43;84.47;100284.97;3607391;39;20112;-63
2023/12/01 04:22:59;;;;;;;59.85;23.90;;;;;;;1.42;84.08;100285.88;3605236;39;20144;-63
2023/12/01 04:25:27;;;;;;;58.97;22.35;;;;;;;1.37;83.93;100287.81;3596610;39;20090;-63
2023/12/01 04:27:55;;;;;;;58.85;22.52;;;;;;;1.24;83.72;100274.13;3605065;39;20120;-62
2023/12/01 04:30:22;;;;;;;57.72;22.58;;;;;;;1.19;83.79;100264.59;3604188;39;20368;-63
2023/12/01 04:32:52;;;;;;;62.70;24.05;;;;;;;1.25;83.25;100298.81;3605467;39;20055;-61
2023/12/01 04:35:28;;;;;;;57.95;22.38;;;;;;;1.22;84.51;100286.53;3605927;39;20060;-63
2023/12/01 04:37:56;;;;;;;53.55;21.70;;;;;;;1.23;84.39;100296.19;3606403;39;20181;-63
2023/12/01 04:40:23;;;;;;;62.63;22.60;;;;;;;1.20;84.91;100292.78;3609864;39;20047;-63
2023/12/01 04:42:51;;;;;;;61.50;22.75;;;;;;;1.21;84.07;100302.47;3606778;39;20061;-63
2023/12/01 04:45:20;;;;;;;67.80;24.45;;;;;;;1.23;84.12;100300.63;3603925;39;20069;-62
2023/12/01 04:47:51;;;;;;;64.95;25.65;;;;;;;1.22;85.25;100302.41;3604969;39;20067;-62
2023/12/01 04:50:24;;;;;;;61.55;25.05;;;;;;;1.25;83.70;100304.09;3610986;39;20059;-62
2023/12/01 04:52:56;;;;;;;63.42;24.40;;;;;;;1.25;84.75;100307.59;3605600;39;20094;-62
2023/12/01 04:55:27;;;;;;;61.00;24.55;;;;;;;1.27;85.25;100311.09;3607264;39;20055;-62
2023/12/01 04:57:55;;;;;;;62.05;25.05;;;;;;;0.88;85.07;100241.75;3604907;39;20131;-62
2023/12/01 05:00:25;;;;;;;64.60;26.40;;;;;;;1.27;85.50;100313.72;3608161;39;20055;-63
2023/12/01 05:03:07;;;;;;;63.90;26.02;;;;;;;1.25;85.86;100314.69;3592852;39;20116;-63
2023/12/01 05:05:36;;;;;;;68.47;24.98;;;;;;;1.26;86.34;100322.56;3603206;39;20051;-63
2023/12/01 05:08:12;;;;;;;68.38;26.58;;;;;;;1.26;85.47;100324.34;3606378;39;20102;-63
2023/12/01 05:10:38;;;;;;;65.40;24.95;;;;;;;1.28;85.99;100325.19;3609920;39;20055;-63
2023/12/01 05:13:07;;;;;;;69.90;26.55;;;;;;;1.30;85.44;100328.63;3606121;39;20066;-61
2023/12/01 05:15:35;;;;;;;72.93;27.30;;;;;;;1.31;86.24;100325.09;3603553;39;20062;-63
2023/12/01 05:18:07;;;;;;;75.95;32.15;;;;;;;1.33;85.39;100325.88;3603574;39;20046;-63
2023/12/01 05:20:34;;;;;;;72.10;29.50;;;;;;;1.33;86.08;100328.53;3605443;39;20058;-63
2023/12/01 05:23:07;;;;;;;71.18;28.50;;;;;;;1.27;86.11;100318.13;3606925;39;21081;-63
2023/12/01 05:25:34;;;;;;;74.28;28.65;;;;;;;1.02;86.06;100281.88;3609499;39;20047;-62
2023/12/01 05:28:06;;;;;;;75.70;29.50;;;;;;;1.39;86.00;100338.94;3606764;39;20055;-63
2023/12/01 05:30:34;;;;;;;72.82;28.55;;;;;;;1.41;85.83;100337.13;3606095;39;20043;-62
2023/12/01 05:33:01;;;;;;;74.50;28.90;;;;;;;1.43;85.72;100345.88;3606852;39;20399;-63
2023/12/01 05:35:27;;;;;;;72.35;27.52;;;;;;;1.46;86.71;100345.78;3608398;39;20051;-63
2023/12/01 05:37:56;;;;;;;72.13;28.50;;;;;;;1.32;86.71;100321.50;3606820;39;20059;-63
2023/12/01 05:40:28;;;;;;;65.78;27.27;;;;;;;1.52;85.56;100350.00;3607468;39;20047;-63
2023/12/01 05:42:56;;;;;;;67.70;27.52;;;;;;;1.48;85.26;100348.38;3606704;39;20410;-62
2023/12/01 05:45:26;;;;;;;67.32;27.30;;;;;;;1.45;85.04;100346.69;3609930;39;20338;-63
2023/12/01 05:47:54;;;;;;;67.43;27.85;;;;;;;1.44;84.85;100363.50;3600574;39;20062;-63
2023/12/01 05:50:29;;;;;;;65.28;28.98;;;;;;;1.47;85.16;100362.53;3606094;39;20054;-63
2023/12/01 05:53:10;;;;;;;71.30;29.02;;;;;;;1.47;84.92;100360.75;3607619;39;20051;-62
2023/12/01 05:55:37;;;;;;;67.20;29.25;;;;;;;1.48;84.85;100365.13;3610927;39;20095;-63
2023/12/01 05:58:13;;;;;;;66.25;27.40;;;;;;;1.45;84.71;100369.66;3606736;39;20499;-62
2023/12/01 06:00:39;;;;;;;70.28;29.23;;;;;;;1.45;85.03;100369.66;3606197;39;20114;-62
2023/12/01 06:03:08;;;;;;;64.78;27.23;;;;;;;1.47;84.55;100371.34;3607150;39;20055;-63
2023/12/01 06:05:36;;;;;;;61.90;27.88;;;;;;;1.45;83.20;100367.88;3605521;39;20054;-63
2023/12/01 06:08:04;;;;;;;59.88;26.27;;;;;;;1.49;83.25;100380.13;3605761;39;20372;-63
2023/12/01 06:10:32;;;;;;;58.08;25.27;;;;;;;1.49;82.57;100366.88;3605510;39;20058;-63
2023/12/01 06:12:58;;;;;;;57.30;25.27;;;;;;;1.34;82.24;100349.69;3606784;39;20051;-62
2023/12/01 06:15:29;;;;;;;57.75;26.42;;;;;;;1.49;82.03;100371.28;3609945;39;20407;-63
2023/12/01 06:18:00;;;;;;;51.65;23.65;;;;;;;1.45;81.22;100370.53;3608957;39;20386;-62
2023/12/01 06:20:27;;;;;;;52.97;23.80;;;;;;;1.46;80.29;100368.72;3609226;39;20055;-62
2023/12/01 06:22:59;;;;;;;50.97;24.90;;;;;;;1.43;81.37;100359.13;3611952;39;20063;-62
2023/12/01 06:25:30;;;;;;;48.37;24.37;;;;;;;1.50;80.00;100365.97;3607777;39;20044;-62
2023/12/01 06:27:59;;;;;;;45.92;24.50;;;;;;;1.55;79.89;100366.66;3607855;39;20051;-62
2023/12/01 06:30:28;;;;;;;52.20;25.52;;;;;;;1.56;80.26;100373.72;3607647;39;20390;-62
2023/12/01 06:32:54;;;;;;;53.50;24.10;;;;;;;1.59;79.71;100376.25;3607514;39;20063;-63
2023/12/01 06:35:21;;;;;;;48.08;24.48;;;;;;;1.57;78.93;100378.06;3610384;39;20082;-62
2023/12/01 06:37:48;;;;;;;45.53;23.55;;;;;;;1.56;79.77;100384.31;3607993;39;20242;-62
2023/12/01 06:40:17;;;;;;;47.40;24.25;;;;;;;1.58;79.57;100381.59;3604777;39;20096;-63
2023/12/01 06:42:47;;;;;;;49.03;24.60;;;;;;;1.60;80.52;100383.28;3608350;39;20051;-63
2023/12/01 06:45:16;;;;;;;46.55;24.17;;;;;;;1.59;79.38;100384.19;3604107;39;20055;-62
2023/12/01 06:47:46;;;;;;;45.40;22.92;;;;;;;1.39;79.10;100352.16;3605109;39;20117;-63
2023/12/01 06:50:14;;;;;;;41.65;22.70;;;;;;;1.62;79.35;100381.47;3606516;39;20133;-63
2023/12/01 06:52:45;;;;;;;46.15;23.48;;;;;;;1.53;79.63;100367.66;3605858;39;20077;-63
2023/12/01 06:55:11;;;;;;;45.10;22.80;;;;;;;1.68;78.79;100395.41;3609029;39;20073;-63
2023/12/01 06:57:40;;;;;;;43.95;22.67;;;;;;;1.66;78.57;100390.16;3609776;39;20067;-63
2023/12/01 07:00:09;;;;;;;49.72;23.67;;;;;;;1.69;78.88;100397.16;3604769;39;20054;-63
2023/12/01 07:02:38;;;;;;;41.60;21.65;;;;;;;1.73;78.62;100398.78;3608218;39;20481;-63
2023/12/01 07:05:06;;;;;;;40.75;21.13;;;;;;;1.74;78.16;100398.72;3606469;39;20260;-63
2023/12/01 07:07:32;;;;;;;42.78;22.45;;;;;;;1.77;78.71;100403.06;3600938;39;20055;-62
2023/12/01 07:09:59;;;;;;;45.15;22.15;;;;;;;1.79;78.20;100402.09;3606353;39;20043;-61
2023/12/01 07:12:25;;;;;;;44.85;21.80;;;;;;;1.83;77.90;100403.72;3606584;39;20088;-63
2023/12/01 07:14:50;;;;;;;42.70;21.83;;;;;;;1.85;77.60;100406.34;3607396;39;20055;-62
2023/12/01 07:17:16;;;;;;;40.10;21.30;;;;;;;1.85;77.97;100411.63;3606121;39;20090;-62
2023/12/01 07:19:42;;;;;;;41.40;21.83;;;;;;;1.87;78.29;100415.09;3607068;39;20303;-63
2023/12/01 07:22:07;;;;;;;41.13;21.40;;;;;;;1.70;77.81;100385.63;3606769;39;20047;-62
2023/12/01 07:24:33;;;;;;;44.78;21.67;;;;;;;1.90;78.02;100414.13;3607308;39;20059;-63
2023/12/01 07:27:00;;;;;;;43.42;22.23;;;;;;;1.90;78.63;100417.63;3607370;39;20059;-62
2023/12/01 07:29:26;;;;;;;43.45;20.92;;;;;;;1.93;78.46;100408.72;3605231;39;20055;-64
2023/12/01 07:31:52;;;;;;;40.28;20.08;;;;;;;1.93;77.57;100414.88;3608266;39;20296;-63
2023/12/01 07:34:18;;;;;;;40.72;20.55;;;;;;;1.97;78.12;100418.31;3605820;39;20501;-63
2023/12/01 07:36:44;;;;;;;40.47;21.08;;;;;;;1.98;77.75;100418.25;3608883;39;20058;-62
2023/12/01 07:39:10;;;;;;;43.20;21.70;;;;;;;1.99;77.60;100419.97;3609210;39;20046;-63
2023/12/01 07:41:35;;;;;;;44.97;21.20;;;;;;;1.98;77.87;100418.25;3605228;39;20128;-63
2023/12/01 07:44:02;;;;;;;39.28;19.65;;;;;;;1.97;77.27;100405.94;3606543;39;20061;-61
2023/12/01 07:46:32;;;;;;;42.85;20.15;;;;;;;2.00;77.85;100411.13;3605080;39;20123;-61
2023/12/01 07:49:01;;;;;;;41.35;20.95;;;;;;;2.00;78.15;100413.78;3607062;39;20047;-63
2023/12/01 07:51:27;;;;;;;41.78;19.65;;;;;;;2.05;77.34;100410.97;3605104;39;20091;-63
2023/12/01 07:53:52;;;;;;;42.45;20.83;;;;;;;2.05;77.69;100409.19;3606548;39;20066;-63
2023/12/01 07:56:21;;;;;;;38.97;19.88;;;;;;;2.05;77.55;100417.13;3606160;39;20054;-63
2023/12/01 07:58:49;;;;;;;40.13;20.33;;;;;;;2.06;78.31;100410.03;3603729;39;20388;-62
2023/12/01 08:01:16;;;;;;;40.58;20.40;;;;;;;2.09;77.70;100417.91;3605427;39;20132;-63
2023/12/01 08:03:45;;;;;;;39.92;20.08;;;;;;;2.11;77.79;100413.41;3607449;39;20128;-63
2023/12/01 08:06:11;;;;;;;39.75;19.83;;;;;;;2.11;77.79;100412.56;3605412;39;20292;-63
2023/12/01 08:08:37;;;;;;;41.42;21.67;;;;;;;2.11;77.38;100415.22;3605452;39;20051;-62
2023/12/01 08:11:04;;;;;;;43.10;20.52;;;;;;;2.11;78.48;100412.56;3596121;39;20063;-62
2023/12/01 08:13:30;;;;;;;41.97;20.60;;;;;;;2.11;78.55;100415.22;3604411;39;20053;-63
2023/12/01 08:15:56;;;;;;;41.28;21.35;;;;;;;2.11;78.01;100412.56;3608110;39;20055;-62
2023/12/01 08:18:22;;;;;;;41.15;20.85;;;;;;;2.13;78.56;100427.50;3601919;39;20066;-63
2023/12/01 08:20:49;;;;;;;39.95;20.00;;;;;;;2.11;77.88;100423.16;3607213;39;20065;-63
2023/12/01 08:23:15;;;;;;;39.63;20.70;;;;;;;2.11;79.20;100424.03;3607354;39;20078;-63
2023/12/01 08:25:43;;;;;;;42.55;21.60;;;;;;;2.12;78.81;100428.41;3602836;39;20061;-64
2023/12/01 08:28:09;;;;;;;44.65;22.35;;;;;;;2.12;78.32;100425.75;3608223;39;20056;-63
2023/12/01 08:30:36;;;;;;;40.45;20.83;;;;;;;2.15;78.42;100435.38;3605094;39;20104;-63
2023/12/01 08:33:02;;;;;;;44.67;21.88;;;;;;;2.17;78.44;100438.88;3608256;39;20047;-63
2023/12/01 08:35:28;;;;;;;42.38;20.60;;;;;;;2.17;77.94;100441.50;3604978;39;20061;-63
2023/12/01 08:37:54;;;;;;;38.05;20.42;;;;;;;2.17;78.75;100437.06;3604727;39;20055;-64
2023/12/01 08:40:20;;;;;;;38.90;20.05;;;;;;;2.15;78.99;100435.38;3608115;39;20054;-63
2023/12/01 08:42:45;;;;;;;38.05;20.13;;;;;;;1.94;78.27;100398.09;3607972;39;20106;-63
2023/12/01 08:45:11;;;;;;;43.90;22.10;;;;;;;2.20;78.72;100439.63;3608706;39;20062;-61
2023/12/01 08:47:38;;;;;;;42.83;21.95;;;;;;;2.24;78.93;100445.69;3607976;39;20128;-62
2023/12/01 08:50:05;;;;;;;42.20;21.55;;;;;;;2.24;79.12;100456.28;3606373;39;20140;-61
2023/12/01 08:52:30;;;;;;;39.50;21.00;;;;;;;2.23;79.28;100452.78;3604292;39;20171;-62
2023/12/01 08:54:56;;;;;;;43.97;21.55;;;;;;;2.25;78.43;100450.97;3606119;39;20048;-64
2023/12/01 08:57:22;;;;;;;41.65;22.08;;;;;;;2.24;78.84;100454.50;3611240;39;20055;-62
2023/12/01 08:59:49;;;;;;;43.85;22.00;;;;;;;2.26;79.33;100447.38;3611457;39;20375;-61
2023/12/01 09:02:14;;;;;;;39.45;20.80;;;;;;;2.25;78.00;100447.41;3607778;39;20046;-62
2023/12/01 09:04:41;;;;;;;43.15;20.98;;;;;;;2.24;78.92;100451.00;3606525;39;20058;-62
2023/12/01 09:07:06;;;;;;;38.97;19.88;;;;;;;2.28;78.85;100456.16;3606268;39;20304;-62
2023/12/01 09:09:32;;;;;;;40.15;19.55;;;;;;;2.30;78.98;100464.03;3606258;39;20074;-62
2023/12/01 09:11:58;;;;;;;39.63;19.63;;;;;;;2.33;79.13;100456.84;3607480;39;20055;-61
2023/12/01 09:14:23;;;;;;;35.53;17.98;;;;;;;2.37;79.12;100456.75;3607577;39;20101;-61
2023/12/01 09:16:49;;;;;;;39.05;18.55;;;;;;;2.35;79.16;100459.47;3611182;39;20043;-61
2023/12/01 09:19:14;;;;;;;35.97;17.83;;;;;;;2.39;79.43;100471.69;3607332;39;20055;-61
2023/12/01 09:21:40;;;;;;;33.28;17.77;;;;;;;2.44;79.32;100469.75;3608386;39;20315;-61
2023/12/01 09:24:06;;;;;;;33.60;16.98;;;;;;;2.45;79.33;100474.13;3606989;39;20331;-62
2023/12/01 09:26:32;;;;;;;35.60;17.13;;;;;;;2.46;78.20;100472.34;3611872;39;20147;-61
2023/12/01 09:28:57;;;;;;;30.27;16.50;;;;;;;2.50;78.03;100480.13;3607811;39;20047;-61
2023/12/01 09:31:23;;;;;;;28.05;14.52;;;;;;;2.49;78.26;100486.38;3608555;39;20058;-64
2023/12/01 09:33:49;;;;;;;29.23;14.52;;;;;;;2.47;77.87;100474.06;3606873;39;20484;-64
2023/12/01 09:36:17;;;;;;;28.00;14.73;;;;;;;2.49;77.84;100477.56;3611123;39;20054;-60
2023/12/01 09:38:49;;;;;;;30.83;14.85;;;;;;;2.53;77.36;100480.03;3609395;39;20043;-62
2023/12/01 09:41:16;;;;;;;27.67;14.17;;;;;;;2.55;77.44;100483.50;3607488;39;20055;-63
2023/12/01 09:43:43;;;;;;;23.35;14.00;;;;;;;2.55;76.55;100488.81;3609019;39;20665;-62
2023/12/01 09:46:11;;;;;;;24.75;13.73;;;;;;;2.53;76.41;100495.94;3607163;39;20067;-62
2023/12/01 09:48:42;;;;;;;24.15;14.00;;;;;;;2.53;76.36;100493.31;3606759;39;20092;-62
2023/12/01 09:51:09;;;;;;;27.25;13.95;;;;;;;2.60;76.27;100501.06;3607102;39;20047;-60
2023/12/01 09:53:36;;;;;;;25.92;14.38;;;;;;;2.61;76.50;100500.16;3607302;39;20106;-62
2023/12/01 09:56:05;;;;;;;27.63;13.95;;;;;;;2.62;75.88;100502.75;3607722;39;20050;-62
2023/12/01 09:58:32;;;;;;;24.23;13.23;;;;;;;2.62;75.90;100491.25;3609408;39;20131;-62
2023/12/01 10:00:59;;;;;;;25.42;13.80;;;;;;;2.67;75.77;100505.25;3609165;39;20043;-63
2023/12/01 10:03:27;;;;;;;25.73;14.10;;;;;;;2.68;75.65;100499.00;3607000;39;20384;-63
2023/12/01 10:05:58;;;;;;;26.38;14.52;;;;;;;2.71;75.61;100498.91;3608292;39;20039;-63
2023/12/01 10:08:25;;;;;;;23.75;14.38;;;;;;;2.73;75.62;100492.63;3608103;39;20055;-63
2023/12/01 10:10:51;;;;;;;27.88;14.98;;;;;;;2.77;75.68;100498.69;3606137;39;20059;-62
2023/12/01 10:13:16;;;;;;;27.45;16.50;;;;;;;2.80;75.41;100490.63;3608910;39;20042;-63
2023/12/01 10:15:43;;;;;;;26.38;15.00;;;;;;;2.83;75.26;100493.19;3610117;39;20092;-63
2023/12/01 10:18:19;;;;;;;25.45;13.93;;;;;;;2.69;74.52;100463.59;3609926;39;20058;-63
2023/12/01 10:21:03;;;;;;;27.00;14.50;;;;;;;2.84;74.29;100494.03;3607935;39;20116;-63
2023/12/01 10:23:30;;;;;;;24.15;13.48;;;;;;;2.70;74.47;100476.81;3606920;39;20035;-63
2023/12/01 10:25:57;;;;;;;24.77;14.13;;;;;;;2.83;74.41;100493.19;3606084;39;20044;-62
2023/12/01 10:28:39;;;;;;;25.08;14.40;;;;;;;2.85;74.02;100496.63;3608408;39;20050;-63
2023/12/01 10:31:05;;;;;;;25.15;13.77;;;;;;;2.89;73.93;100489.44;3608500;39;20065;-63
2023/12/01 10:33:31;;;;;;;27.92;14.63;;;;;;;2.91;74.17;100499.06;3606799;39;20055;-63
2023/12/01 10:36:07;;;;;;;23.77;13.65;;;;;;;2.95;72.96;100499.81;3609791;39;20386;-63
2023/12/01 10:38:35;;;;;;;23.83;13.57;;;;;;;2.97;72.93;100496.19;3607448;39;20078;-63
2023/12/01 10:41:04;;;;;;;24.27;14.02;;;;;;;3.00;73.19;100495.22;3609950;39;20063;-63
2023/12/01 10:43:31;;;;;;;23.40;14.07;;;;;;;3.05;73.20;100493.28;3609990;39;20091;-62
2023/12/01 10:46:05;;;;;;;24.58;14.30;;;;;;;3.08;72.78;100494.97;3610833;39;20063;-63
2023/12/01 10:48:34;;;;;;;23.33;12.98;;;;;;;3.08;72.33;100487.84;3611035;39;20054;-62
2023/12/01 10:51:03;;;;;;;25.50;13.45;;;;;;;3.09;73.19;100489.56;3608458;39;20059;-62
2023/12/01 10:53:29;;;;;;;24.63;14.30;;;;;;;3.19;73.14;100490.09;3608819;39;20086;-62
2023/12/01 10:56:01;;;;;;;26.42;13.75;;;;;;;3.18;72.33;100497.22;3608036;39;20389;-62
2023/12/01 10:58:34;;;;;;;22.42;12.80;;;;;;;3.17;71.46;100497.25;3611706;39;20062;-62
2023/12/01 11:01:00;;;;;;;24.20;12.43;;;;;;;3.20;71.59;100491.81;3608676;39;20058;-62
2023/12/01 11:03:31;;;;;;;22.65;13.25;;;;;;;2.93;70.96;100457.41;3607484;39;20055;-63
2023/12/01 11:06:14;;;;;;;23.27;13.30;;;;;;;2.97;71.00;100461.69;3605198;39;20077;-63
2023/12/01 11:09:08;;;;;;;22.87;13.03;;;;;;;3.05;70.46;100487.97;3606061;39;20112;-63
2023/12/01 11:12:25;;;;;;;22.08;12.30;;;;;;;3.02;71.32;100488.94;3607842;39;20125;-66
2023/12/01 11:14:54;;;;;;;21.10;12.50;;;;;;;3.02;70.67;100491.59;3588443;39;20046;-63
2023/12/01 11:17:21;;;;;;;22.50;12.80;;;;;;;2.71;70.90;100438.72;3608397;39;20123;-63
2023/12/01 11:19:46;;;;;;;22.15;11.52;;;;;;;2.92;70.23;100482.22;3606544;39;20059;-63